Time;durP1;ratioP1;P1;durP2;ratioP2;P2;SDS_P1;SDS_P2;PMS_P1;PMS_P2;Temp;Humidity;BMP_temperature;BMP_pressure;BME280_temperature;BME280_humidity;BME280_pressure;Samples;Min_cycle;Max_cycle;Signal;HPM_P1;HPM_P2
2021/07/11 00:01:35;;;;;;;11.05;7.95;;;;;;;17.42;78.68;99183.94;4109898;84;21127;-83
2021/07/11 00:07:39;;;;;;;11.20;8.05;;;;;;;17.44;78.85;99185.73;4114979;84;21171;-84
2021/07/11 00:13:40;;;;;;;9.73;7.15;;;;;;;17.48;79.04;99178.16;4118948;84;21091;-85
2021/07/11 00:19:41;;;;;;;9.68;6.92;;;;;;;17.43;79.24;99179.20;4111396;84;21012;-83
2021/07/11 00:25:43;;;;;;;11.18;7.92;;;;;;;17.33;79.53;99182.29;4119109;84;21176;-84
2021/07/11 00:31:44;;;;;;;9.45;7.75;;;;;;;17.29;79.61;99171.84;4109440;84;21051;-83
2021/07/11 00:37:46;;;;;;;8.50;7.62;;;;;;;17.22;79.93;99173.34;4109298;84;21417;-84
2021/07/11 00:43:49;;;;;;;8.85;7.67;;;;;;;17.19;80.20;99170.78;4118976;84;21048;-83
2021/07/11 00:49:52;;;;;;;10.48;7.85;;;;;;;17.24;80.49;99170.95;4109146;84;21118;-84
2021/07/11 00:55:53;;;;;;;12.68;7.67;;;;;;;17.26;80.72;99170.53;4110823;84;21019;-83
2021/07/11 01:02:21;;;;;;;10.32;7.70;;;;;;;17.20;80.81;99170.98;4134858;84;21128;-83
2021/07/11 01:08:58;;;;;;;14.18;8.30;;;;;;;17.19;81.07;99171.41;4135641;84;21055;-84
2021/07/11 01:15:02;;;;;;;9.53;8.58;;;;;;;17.17;81.35;99166.29;4141102;84;21043;-83
2021/07/11 01:21:14;;;;;;;11.53;8.35;;;;;;;17.18;81.67;99171.20;4136663;84;21562;-83
2021/07/11 01:27:23;;;;;;;11.10;8.83;;;;;;;17.16;81.80;99166.70;4137412;83;21056;-83
2021/07/11 01:33:29;;;;;;;11.45;9.45;;;;;;;17.14;82.15;99172.65;4138336;84;21547;-83
2021/07/11 01:39:36;;;;;;;12.00;9.10;;;;;;;17.12;82.18;99170.09;4135955;84;21102;-83
2021/07/11 01:45:40;;;;;;;10.15;9.03;;;;;;;17.11;82.43;99156.09;4134824;84;21134;-84
2021/07/11 01:51:42;;;;;;;11.03;9.03;;;;;;;17.10;82.63;99158.69;4122823;84;21087;-84
2021/07/11 01:57:44;;;;;;;10.45;9.35;;;;;;;17.08;82.85;99156.92;4133511;84;21022;-84
2021/07/11 02:03:46;;;;;;;10.48;9.45;;;;;;;17.05;83.02;99152.22;4139394;84;21522;-83
2021/07/11 02:09:47;;;;;;;10.82;9.60;;;;;;;17.02;83.19;99147.52;4142277;84;21094;-83
2021/07/11 02:15:53;;;;;;;9.73;8.73;;;;;;;16.98;83.46;99157.82;4130638;84;21104;-82
2021/07/11 02:21:56;;;;;;;12.53;10.15;;;;;;;16.96;83.62;99155.47;4121361;84;21061;-82
2021/07/11 02:28:03;;;;;;;11.55;9.50;;;;;;;16.93;83.67;99152.16;4130504;84;21351;-83
2021/07/11 02:34:09;;;;;;;10.95;8.65;;;;;;;16.94;83.76;99159.23;4136934;84;21074;-84
2021/07/11 02:40:09;;;;;;;11.68;9.10;;;;;;;16.97;83.92;99154.30;4138967;84;21066;-82
2021/07/11 02:46:17;;;;;;;11.60;9.15;;;;;;;17.04;83.97;99156.95;4139300;84;21074;-83
2021/07/11 02:52:22;;;;;;;11.97;9.33;;;;;;;16.98;83.85;99157.23;4133503;84;21095;-82
2021/07/11 02:58:27;;;;;;;10.48;9.33;;;;;;;16.91;83.99;99151.77;4134072;84;21682;-83
2021/07/11 03:04:33;;;;;;;12.15;9.45;;;;;;;16.83;84.14;99148.93;4130621;84;21043;-84
2021/07/11 03:10:40;;;;;;;16.02;10.13;;;;;;;16.81;84.47;99150.52;4142319;83;23502;-83
2021/07/11 03:16:51;;;;;;;13.80;10.45;;;;;;;16.85;84.51;99153.42;4121581;84;21539;-83
2021/07/11 03:22:56;;;;;;;10.40;9.28;;;;;;;16.90;84.56;99147.45;4125086;84;21031;-83
2021/07/11 03:29:00;;;;;;;11.37;10.17;;;;;;;16.89;84.71;99153.39;4120801;84;21202;-84
2021/07/11 03:35:04;;;;;;;13.53;10.50;;;;;;;16.89;84.79;99146.48;4103730;84;21213;-83
2021/07/11 03:41:10;;;;;;;13.85;10.40;;;;;;;16.86;84.90;99147.31;4183092;82;30494;-83
2021/07/11 03:47:16;;;;;;;11.40;10.30;;;;;;;16.91;85.22;99151.01;4253118;82;21547;-82
2021/07/11 03:53:25;;;;;;;15.53;10.75;;;;;;;17.00;85.29;99145.76;4245310;81;21510;-83
2021/07/11 03:59:29;;;;;;;13.40;11.88;;;;;;;17.04;85.52;99144.52;4254937;82;21235;-82
2021/07/11 04:05:35;;;;;;;15.60;10.75;;;;;;;17.12;85.52;99151.53;4254348;82;21102;-84
2021/07/11 04:11:36;;;;;;;14.43;10.53;;;;;;;17.23;85.66;99147.85;4245624;81;21061;-83
2021/07/11 04:17:38;;;;;;;14.98;12.70;;;;;;;17.34;85.61;99147.87;4265955;81;21008;-84
2021/07/11 04:23:41;;;;;;;13.22;11.48;;;;;;;17.42;85.55;99138.87;4256586;81;21491;-84
2021/07/11 04:29:45;;;;;;;13.70;11.30;;;;;;;17.50;85.79;99136.22;4251028;81;21138;-84
2021/07/11 04:35:47;;;;;;;15.40;12.10;;;;;;;17.60;85.72;99133.31;4260731;81;21024;-85
2021/07/11 04:41:54;;;;;;;12.77;11.47;;;;;;;17.70;85.85;99124.64;4210929;81;21155;-85
2021/07/11 04:47:57;;;;;;;12.85;11.55;;;;;;;17.80;85.86;99130.63;4265711;81;21103;-85
2021/07/11 04:54:07;;;;;;;12.98;11.10;;;;;;;17.97;85.80;99126.79;4263610;81;21118;-84
2021/07/11 05:00:13;;;;;;;11.03;9.73;;;;;;;18.08;85.74;99124.63;4272659;81;21039;-83
2021/07/11 05:06:19;;;;;;;12.10;10.90;;;;;;;18.18;85.59;99125.06;4271279;81;21032;-84
2021/07/11 05:12:21;;;;;;;11.97;10.78;;;;;;;18.32;85.51;99120.65;4253121;81;21119;-83
2021/07/11 05:18:23;;;;;;;10.75;9.68;;;;;;;18.40;85.45;99115.95;4258530;81;21059;-83
2021/07/11 05:24:24;;;;;;;12.35;10.05;;;;;;;18.47;85.31;99110.30;4275761;81;21013;-84
2021/07/11 05:30:26;;;;;;;10.68;9.68;;;;;;;18.59;85.25;99115.20;4275110;81;21022;-84
2021/07/11 05:36:29;;;;;;;11.12;9.13;;;;;;;18.78;85.16;99107.34;4256786;81;21408;-84
2021/07/11 05:42:31;;;;;;;9.83;8.90;;;;;;;19.01;85.02;99110.81;4261369;81;21020;-84
2021/07/11 05:48:32;;;;;;;9.78;8.10;;;;;;;19.18;84.80;99099.15;4269920;81;21042;-83
2021/07/11 05:54:35;;;;;;;9.50;8.50;;;;;;;19.35;84.63;99106.33;4268868;81;21648;-85
2021/07/11 06:00:39;;;;;;;10.93;7.80;;;;;;;19.53;84.52;99109.50;4276996;81;21064;-84
2021/07/11 06:06:40;;;;;;;9.63;7.28;;;;;;;19.73;84.24;99108.83;4251627;81;21067;-85
2021/07/11 06:12:46;;;;;;;10.25;6.80;;;;;;;19.92;84.10;99106.58;4268739;81;21122;-85
2021/07/11 06:18:47;;;;;;;6.90;6.25;;;;;;;20.15;84.04;99103.00;4258988;81;21435;-85
2021/07/11 06:24:49;;;;;;;7.05;5.97;;;;;;;20.39;83.91;99095.86;4265314;81;21004;-85
2021/07/11 06:30:50;;;;;;;5.78;5.10;;;;;;;20.70;83.54;99094.20;4258283;81;21468;-84
2021/07/11 06:36:52;;;;;;;5.90;5.40;;;;;;;20.97;83.05;99086.31;4265002;81;21020;-85
2021/07/11 06:42:54;;;;;;;5.78;4.97;;;;;;;21.21;82.53;99089.73;4271066;81;21079;-85
2021/07/11 06:48:56;;;;;;;9.30;4.60;;;;;;;21.42;82.32;99086.29;4253100;81;21051;-85
2021/07/11 06:55:06;;;;;;;5.62;4.30;;;;;;;21.60;81.88;99089.31;4263309;81;21110;-84
2021/07/11 07:01:07;;;;;;;6.90;3.95;;;;;;;21.85;81.38;99082.95;4215958;80;21047;-86
2021/07/11 07:07:09;;;;;;;4.72;3.75;;;;;;;22.16;80.57;99083.14;4175103;82;21082;-88
2021/07/11 07:13:10;;;;;;;5.10;3.15;;;;;;;22.56;79.63;99070.97;4178314;82;21046;-85
2021/07/11 07:19:11;;;;;;;3.58;3.20;;;;;;;22.95;78.60;99073.11;4184496;82;21098;-87
2021/07/11 07:25:19;;;;;;;9.68;3.60;;;;;;;23.50;78.21;99075.59;4185722;83;21043;-87
2021/07/11 07:31:21;;;;;;;3.77;3.05;;;;;;;24.04;77.40;99068.03;4189901;83;21048;-87
2021/07/11 07:37:22;;;;;;;3.33;3.02;;;;;;;24.48;75.85;99065.09;4176881;82;21052;-86
2021/07/11 07:43:24;;;;;;;4.87;3.00;;;;;;;24.92;75.82;99070.52;4178424;82;21070;-87
2021/07/11 07:49:26;;;;;;;5.47;3.02;;;;;;;25.32;74.44;99075.27;4186840;82;20984;-86
2021/07/11 07:55:30;;;;;;;4.30;3.00;;;;;;;25.73;73.89;99077.28;4178836;83;23146;-85
2021/07/11 08:01:32;;;;;;;4.50;2.80;;;;;;;26.16;73.04;99081.59;4195059;80;21032;-86
2021/07/11 08:07:35;;;;;;;6.28;3.35;;;;;;;25.92;70.01;99082.16;4192571;81;21082;-86
2021/07/11 08:13:38;;;;;;;3.77;3.35;;;;;;;26.04;69.85;99079.16;4197119;81;20996;-85
2021/07/11 08:19:40;;;;;;;5.95;3.42;;;;;;;25.99;69.41;99069.20;4190731;81;21550;-87
2021/07/11 08:25:41;;;;;;;4.20;3.05;;;;;;;26.01;69.57;99065.33;4190883;81;21055;-85
2021/07/11 08:31:43;;;;;;;3.55;3.10;;;;;;;25.95;68.96;99067.22;4202409;81;21086;-81
2021/07/11 08:37:45;;;;;;;4.87;3.37;;;;;;;25.85;68.61;99071.31;4191279;81;21063;-86
2021/07/11 08:43:48;;;;;;;4.33;3.65;;;;;;;25.69;68.34;99071.70;4202526;81;21549;-85
2021/07/11 08:49:50;;;;;;;5.62;3.80;;;;;;;25.67;68.24;99062.36;4191329;81;21075;-87
2021/07/11 08:55:52;;;;;;;4.70;3.90;;;;;;;25.84;67.60;99064.92;4205240;81;21670;-86
2021/07/11 09:01:55;;;;;;;6.62;3.85;;;;;;;25.54;67.43;99061.03;4183399;81;21095;-87
2021/07/11 09:08:12;;;;;;;4.03;3.62;;;;;;;25.43;67.62;99074.16;4177056;83;21054;-86
2021/07/11 09:14:25;;;;;;;6.00;4.25;;;;;;;25.36;67.72;99069.50;4175251;82;21056;-86
2021/07/11 09:20:27;;;;;;;4.28;3.87;;;;;;;25.35;67.70;99074.34;4178739;82;21065;-86
2021/07/11 09:26:34;;;;;;;7.00;4.28;;;;;;;25.52;67.77;99066.33;4175375;83;21070;-86
2021/07/11 09:32:37;;;;;;;6.15;5.28;;;;;;;25.84;67.53;99072.58;4180343;83;21134;-86
2021/07/11 09:38:38;;;;;;;5.85;4.78;;;;;;;25.70;67.61;99068.42;4176498;83;21062;-87
2021/07/11 09:44:44;;;;;;;5.03;4.53;;;;;;;25.71;67.46;99071.39;4175546;83;21075;-85
2021/07/11 09:50:46;;;;;;;7.92;4.90;;;;;;;25.78;67.52;99079.44;4180656;82;21064;-85
2021/07/11 09:56:48;;;;;;;5.40;4.67;;;;;;;25.62;67.50;99080.47;4189521;83;21043;-85
2021/07/11 10:02:53;;;;;;;6.37;5.08;;;;;;;25.80;67.54;99086.77;4196153;82;20995;-85
2021/07/11 10:08:55;;;;;;;7.08;5.55;;;;;;;26.18;67.51;99081.89;4192554;82;21032;-86
2021/07/11 10:14:57;;;;;;;5.75;5.25;;;;;;;26.27;67.09;99079.02;4195629;82;21118;-85
2021/07/11 10:20:59;;;;;;;6.00;5.17;;;;;;;26.40;66.96;99084.38;4192473;82;21603;-84
2021/07/11 10:27:00;;;;;;;5.78;5.17;;;;;;;26.20;66.93;99080.80;4187123;83;21523;-85
2021/07/11 10:33:21;;;;;;;6.58;5.12;;;;;;;26.14;66.95;99077.86;4193330;82;21071;-85
2021/07/11 10:39:28;;;;;;;7.17;5.75;;;;;;;26.14;67.14;99084.09;4187725;82;21592;-86
2021/07/11 10:45:29;;;;;;;5.58;5.00;;;;;;;26.16;67.02;99085.80;4187077;82;21495;-85
2021/07/11 10:51:42;;;;;;;6.55;5.72;;;;;;;26.17;67.19;99068.34;4198397;82;21016;-85
2021/07/11 10:57:43;;;;;;;6.10;5.17;;;;;;;26.64;66.80;99066.27;4189143;82;22063;-85
2021/07/11 11:03:48;;;;;;;6.45;5.35;;;;;;;27.33;66.43;99046.06;4243413;81;21130;-86
2021/07/11 11:09:51;;;;;;;5.58;5.03;;;;;;;28.03;66.05;99053.92;4248324;81;21578;-86
2021/07/11 11:16:00;;;;;;;5.28;4.78;;;;;;;28.55;65.56;99060.62;4242120;81;21028;-86
2021/07/11 11:22:02;;;;;;;5.92;4.42;;;;;;;29.05;64.74;99048.48;4249353;81;21587;-86
2021/07/11 11:28:03;;;;;;;6.53;4.83;;;;;;;29.41;63.83;99063.30;4241618;81;21035;-86
2021/07/11 11:34:08;;;;;;;6.72;5.72;;;;;;;29.15;63.00;99082.28;4246577;81;22068;-86
2021/07/11 11:40:11;;;;;;;7.27;5.67;;;;;;;28.27;62.84;99098.14;4249010;81;21176;-85
2021/07/11 11:46:29;;;;;;;6.53;5.80;;;;;;;27.57;63.11;99087.48;4241812;81;21043;-86
2021/07/11 11:52:30;;;;;;;7.03;6.33;;;;;;;27.19;63.22;99067.91;4253221;81;21057;-86
2021/07/11 11:58:34;;;;;;;7.15;6.28;;;;;;;27.03;63.60;99064.95;4256771;81;20964;-85
2021/07/11 12:04:35;;;;;;;6.62;6.10;;;;;;;26.96;63.68;99072.38;4196669;81;21002;-86
2021/07/11 12:10:37;;;;;;;6.78;6.20;;;;;;;26.93;63.72;99077.55;4202378;81;21031;-86
2021/07/11 12:16:40;;;;;;;7.30;5.95;;;;;;;26.66;63.67;99077.80;4206855;81;21042;-85
2021/07/11 12:22:42;;;;;;;6.78;6.05;;;;;;;26.42;63.89;99091.70;4256325;79;21505;-85
2021/07/11 12:28:53;;;;;;;6.87;6.28;;;;;;;26.13;64.20;99090.96;4351574;79;21100;-85
2021/07/11 12:34:57;;;;;;;6.55;5.90;;;;;;;25.96;64.79;99091.20;4370528;79;21503;-86
2021/07/11 12:41:01;;;;;;;6.83;6.10;;;;;;;25.91;65.33;99102.44;4366905;78;21006;-84
2021/07/11 12:47:15;;;;;;;8.60;6.17;;;;;;;25.78;65.86;99109.50;4361075;79;21038;-85
2021/07/11 12:53:16;;;;;;;8.33;6.42;;;;;;;25.72;66.36;99110.00;4364471;79;21015;-85
2021/07/11 12:59:35;;;;;;;8.08;6.80;;;;;;;25.61;66.52;99104.91;4358765;79;21569;-85
2021/07/11 13:05:40;;;;;;;10.25;7.00;;;;;;;25.49;66.84;99117.11;4402326;79;21062;-84
2021/07/11 13:11:42;;;;;;;11.63;6.17;;;;;;;24.63;67.77;99110.17;4401836;79;21491;-85
2021/07/11 13:17:44;;;;;;;12.47;6.00;;;;;;;24.63;67.77;99110.17;4406858;79;20979;-84
2021/07/11 13:23:45;;;;;;;8.18;5.00;;;;;;;24.39;67.94;99118.25;4395244;79;21755;-84
2021/07/11 13:29:47;;;;;;;7.35;5.03;;;;;;;24.08;68.41;99137.94;4393454;79;21570;-85
2021/07/11 13:35:51;;;;;;;8.68;5.30;;;;;;;23.88;69.17;99134.72;4395398;79;21526;-85
2021/07/11 13:41:54;;;;;;;7.83;4.28;;;;;;;23.59;70.00;99137.09;4399217;79;21570;-82
2021/07/11 13:47:55;;;;;;;5.78;3.58;;;;;;;23.07;69.13;99130.88;4396596;79;20991;-83
2021/07/11 13:53:58;;;;;;;6.85;3.70;;;;;;;22.80;69.64;99106.19;4397652;79;21986;-83
2021/07/11 14:00:00;;;;;;;6.25;4.97;;;;;;;22.71;69.91;99087.34;4396769;79;21078;-83
2021/07/11 14:06:02;;;;;;;4.37;3.98;;;;;;;22.09;72.03;99105.66;4369991;79;21029;-84
2021/07/11 14:12:04;;;;;;;4.90;3.62;;;;;;;21.65;73.66;99111.05;4372043;79;21617;-84
2021/07/11 14:18:06;;;;;;;6.22;3.92;;;;;;;21.34;73.63;99114.81;4367054;79;21438;-82
2021/07/11 14:24:08;;;;;;;4.50;4.10;;;;;;;20.91;74.84;99118.03;4380961;79;21042;-82
2021/07/11 14:30:16;;;;;;;6.40;3.85;;;;;;;20.60;74.89;99107.19;4372495;79;20971;-82
2021/07/11 14:36:17;;;;;;;4.60;3.60;;;;;;;20.48;75.39;99100.97;4272589;81;21102;-83
2021/07/11 14:42:19;;;;;;;6.08;3.70;;;;;;;20.33;75.50;99093.45;4278317;81;20996;-83
2021/07/11 14:48:22;;;;;;;5.22;3.87;;;;;;;20.22;77.89;99081.20;4230053;82;21487;-83
2021/07/11 14:54:23;;;;;;;5.85;4.00;;;;;;;20.15;76.68;99067.50;4233572;82;21069;-83
2021/07/11 15:00:24;;;;;;;4.83;3.75;;;;;;;20.18;76.90;99063.25;4233522;82;21093;-85
2021/07/11 15:06:32;;;;;;;7.12;3.72;;;;;;;20.13;77.39;99055.44;4269109;82;21003;-85
2021/07/11 15:12:33;;;;;;;9.25;4.80;;;;;;;20.21;78.06;99061.58;4233055;82;21899;-86
2021/07/11 15:18:35;;;;;;;4.83;3.67;;;;;;;20.38;78.73;99049.20;4393344;79;21614;-85
2021/07/11 15:24:36;;;;;;;5.78;2.98;;;;;;;20.26;78.82;99044.38;4392224;79;21080;-85
2021/07/11 15:30:38;;;;;;;5.47;3.10;;;;;;;20.22;78.85;99038.12;4392187;79;21875;-85
2021/07/11 15:36:40;;;;;;;6.83;3.85;;;;;;;20.32;79.10;99013.43;4389146;79;21022;-85
2021/07/11 15:42:41;;;;;;;5.35;3.50;;;;;;;20.30;79.00;99015.10;4391931;79;21899;-84
2021/07/11 15:48:43;;;;;;;5.10;3.58;;;;;;;20.25;78.89;99030.92;4394273;79;21014;-84
2021/07/11 15:54:44;;;;;;;4.95;3.50;;;;;;;20.07;79.51;99039.09;4391297;79;21038;-83
2021/07/11 16:00:46;;;;;;;6.67;4.75;;;;;;;20.02;80.31;99018.78;4227424;79;32239;-86
2021/07/11 16:06:47;;;;;;;5.33;4.17;;;;;;;19.94;80.72;99025.73;4180051;83;21004;-85
2021/07/11 16:12:48;;;;;;;5.20;4.10;;;;;;;19.90;81.01;99022.28;4179869;83;21050;-85
2021/07/11 16:18:49;;;;;;;10.48;5.10;;;;;;;19.79;81.33;99037.65;4181306;83;21008;-84
2021/07/11 16:24:51;;;;;;;6.20;5.05;;;;;;;19.69;81.61;99049.19;4181637;83;20995;-85
2021/07/11 16:30:52;;;;;;;8.45;4.70;;;;;;;19.52;82.07;99057.34;4179116;83;21374;-85
2021/07/11 16:36:57;;;;;;;5.72;4.97;;;;;;;19.41;82.72;99062.37;4174592;83;21070;-85
2021/07/11 16:43:01;;;;;;;8.38;5.10;;;;;;;19.31;83.04;99080.03;4176517;83;21101;-86
2021/07/11 16:49:04;;;;;;;9.45;5.90;;;;;;;19.27;83.57;99087.64;4179795;83;21029;-85
2021/07/11 16:55:07;;;;;;;9.38;6.08;;;;;;;19.28;84.03;99092.63;4174368;83;21021;-85
2021/07/11 17:01:08;;;;;;;8.48;6.20;;;;;;;19.25;84.52;99115.63;4182184;81;21756;-84
2021/07/11 17:07:10;;;;;;;12.63;7.10;;;;;;;19.26;84.84;99136.05;4107795;81;9999630;-84
2021/07/11 17:13:12;;;;;;;9.95;6.58;;;;;;;19.23;85.24;99136.11;4227481;81;21564;-85
2021/07/11 17:19:14;;;;;;;8.20;7.00;;;;;;;19.31;85.33;99138.32;4224037;82;21024;-84
2021/07/11 17:25:18;;;;;;;11.22;7.00;;;;;;;19.26;85.71;99140.20;4221518;82;21052;-85
2021/07/11 17:31:19;;;;;;;10.40;6.95;;;;;;;19.27;86.02;99123.72;4206541;82;21030;-84
2021/07/11 17:37:21;;;;;;;15.53;7.37;;;;;;;19.32;86.30;99130.19;4226481;82;21063;-84
2021/07/11 17:43:24;;;;;;;12.93;7.65;;;;;;;19.30;86.44;99129.83;4217278;82;21064;-84
2021/07/11 17:49:25;;;;;;;12.20;7.15;;;;;;;19.35;86.72;99142.41;4221160;82;21074;-85
2021/07/11 17:55:30;;;;;;;11.75;7.53;;;;;;;19.34;86.74;99135.31;4216965;82;21033;-86
2021/07/11 18:01:31;;;;;;;14.40;8.57;;;;;;;19.23;86.97;99125.02;4102848;82;10000035;-85
2021/07/11 18:07:33;;;;;;;12.40;7.25;;;;;;;19.28;87.66;99119.75;4214062;80;21040;-84
2021/07/11 18:13:34;;;;;;;10.55;8.23;;;;;;;19.26;89.71;99107.50;4213791;82;21507;-84
2021/07/11 18:19:36;;;;;;;13.03;8.73;;;;;;;19.22;88.55;99083.19;4222068;81;21051;-84
2021/07/11 18:25:37;;;;;;;15.25;8.18;;;;;;;19.21;89.10;99050.52;4216323;81;21094;-82
2021/07/11 18:31:39;;;;;;;15.78;9.18;;;;;;;19.33;89.18;99031.03;4219668;81;21396;-85
2021/07/11 18:37:45;;;;;;;13.00;10.28;;;;;;;19.44;89.09;99010.14;4224001;81;21046;-82
2021/07/11 18:43:46;;;;;;;13.20;10.55;;;;;;;19.50;89.10;99005.63;4213796;81;21081;-84
2021/07/11 18:49:48;;;;;;;15.70;9.85;;;;;;;19.51;89.21;99035.57;4215778;82;21035;-84
2021/07/11 18:55:50;;;;;;;11.95;10.25;;;;;;;19.39;89.33;99028.70;4212515;82;21062;-83
2021/07/11 19:01:51;;;;;;;18.30;13.93;;;;;;;19.43;89.62;99032.78;4218273;82;21557;-83
2021/07/11 19:07:53;;;;;;;14.78;11.45;;;;;;;19.31;89.46;99027.92;4099044;82;10000482;-83
2021/07/11 19:13:54;;;;;;;17.80;11.60;;;;;;;19.22;89.94;99021.55;4217349;81;21143;-83
2021/07/11 19:20:04;;;;;;;14.13;9.48;;;;;;;19.21;90.32;99017.81;4223846;81;21040;-81
2021/07/11 19:26:05;;;;;;;12.98;9.10;;;;;;;19.23;90.49;99023.72;4229934;82;21056;-82
2021/07/11 19:32:08;;;;;;;17.75;11.25;;;;;;;19.20;90.91;99043.38;4230226;82;20997;-83
2021/07/11 19:38:09;;;;;;;12.13;10.63;;;;;;;19.17;90.52;99049.03;4228724;82;21868;-82
2021/07/11 19:44:16;;;;;;;15.78;10.98;;;;;;;19.03;90.64;99047.34;4205877;82;21943;-83
2021/07/11 19:50:18;;;;;;;15.43;10.85;;;;;;;19.01;91.23;99051.77;4213696;82;21054;-81
2021/07/11 19:56:19;;;;;;;12.20;9.68;;;;;;;19.01;91.23;99037.89;4213362;82;21047;-83
2021/07/11 20:02:21;;;;;;;14.03;9.38;;;;;;;19.01;91.54;99048.99;4214775;82;22003;-81
2021/07/11 20:08:28;;;;;;;13.15;9.63;;;;;;;19.05;91.68;99061.57;4213695;82;21084;-82
2021/07/11 20:14:29;;;;;;;14.18;10.72;;;;;;;19.10;91.67;99058.89;4213524;82;21031;-82
2021/07/11 20:20:31;;;;;;;16.02;11.80;;;;;;;19.17;91.53;99056.73;4220333;82;21063;-83
2021/07/11 20:26:32;;;;;;;16.50;11.20;;;;;;;19.18;91.64;99051.98;4216417;82;21660;-84
2021/07/11 20:32:34;;;;;;;14.85;11.78;;;;;;;19.15;91.41;99038.38;4219900;82;21040;-84
2021/07/11 20:38:36;;;;;;;19.77;12.50;;;;;;;18.98;91.35;99044.30;4215714;82;21043;-83
2021/07/11 20:44:38;;;;;;;14.38;11.18;;;;;;;18.95;91.91;99043.16;4208372;82;21937;-82
2021/07/11 20:50:45;;;;;;;15.13;12.68;;;;;;;18.94;91.75;99038.03;4207202;82;21057;-83
2021/07/11 20:56:46;;;;;;;16.00;12.73;;;;;;;18.95;91.75;99038.99;4222361;82;21090;-83
2021/07/11 21:02:48;;;;;;;14.23;12.50;;;;;;;18.74;92.03;99026.98;4184953;82;21660;-81
2021/07/11 21:08:49;;;;;;;16.87;13.83;;;;;;;18.70;92.42;99027.05;4105976;84;21045;-82
2021/07/11 21:14:51;;;;;;;15.72;12.13;;;;;;;18.66;92.50;99024.18;4107484;84;21140;-81
2021/07/11 21:20:52;;;;;;;16.65;13.05;;;;;;;18.56;92.44;99023.19;4107047;84;21041;-81
2021/07/11 21:26:59;;;;;;;14.63;12.90;;;;;;;18.52;92.87;99033.58;4116679;84;21039;-82
2021/07/11 21:33:00;;;;;;;16.30;12.20;;;;;;;18.49;92.85;99033.05;4116626;83;21084;-83
2021/07/11 21:39:05;;;;;;;18.42;13.03;;;;;;;18.48;93.22;99035.63;4122432;84;21502;-82
2021/07/11 21:45:08;;;;;;;14.20;12.10;;;;;;;18.50;93.30;99042.92;4109829;84;21056;-82
2021/07/11 21:51:10;;;;;;;13.80;11.75;;;;;;;18.54;93.41;99037.31;4113865;84;21072;-83
2021/07/11 21:57:11;;;;;;;16.10;11.18;;;;;;;18.44;93.27;99028.59;4107833;84;21082;-82
2021/07/11 22:03:12;;;;;;;12.73;11.05;;;;;;;18.39;93.39;99022.94;4118666;83;21125;-81
2021/07/11 22:09:14;;;;;;;14.20;11.15;;;;;;;18.33;93.41;99022.45;4173083;83;21049;-81
2021/07/11 22:15:16;;;;;;;13.78;10.35;;;;;;;18.32;93.39;99020.27;4174921;83;21039;-81
2021/07/11 22:21:19;;;;;;;15.70;10.10;;;;;;;18.20;93.25;99008.44;4176999;82;21047;-81
2021/07/11 22:27:21;;;;;;;12.25;9.80;;;;;;;18.01;93.08;99009.81;4180461;82;21227;-83
2021/07/11 22:33:22;;;;;;;10.88;9.33;;;;;;;17.86;93.31;99010.66;4177398;82;21139;-81
2021/07/11 22:39:23;;;;;;;12.58;9.50;;;;;;;17.77;93.55;99004.11;4177586;82;21111;-81
2021/07/11 22:45:25;;;;;;;12.30;9.88;;;;;;;17.78;93.85;98992.61;4176967;83;21083;-80
2021/07/11 22:51:26;;;;;;;13.53;8.98;;;;;;;17.73;93.63;99002.02;4174553;82;21076;-81
2021/07/11 22:57:28;;;;;;;12.23;9.13;;;;;;;17.62;93.65;98988.95;4176974;83;21713;-81
2021/07/11 23:03:29;;;;;;;16.25;9.08;;;;;;;17.54;93.71;98990.28;4188444;83;21590;-81
2021/07/11 23:09:30;;;;;;;11.78;8.45;;;;;;;17.46;93.85;98981.29;4224904;82;21067;-81
2021/07/11 23:15:32;;;;;;;9.50;7.78;;;;;;;17.39;94.23;98979.22;4221360;81;21054;-81
2021/07/11 23:21:33;;;;;;;12.18;8.25;;;;;;;17.26;94.23;98962.42;4220378;82;21941;-81
2021/07/11 23:27:36;;;;;;;12.73;8.00;;;;;;;17.25;94.22;98955.34;4225629;82;21093;-81
2021/07/11 23:33:37;;;;;;;13.35;8.03;;;;;;;17.15;94.10;98954.89;4223897;82;22326;-81
2021/07/11 23:39:38;;;;;;;12.05;8.13;;;;;;;17.11;94.31;98956.36;4224585;82;21704;-81
2021/07/11 23:45:40;;;;;;;15.00;8.05;;;;;;;17.07;94.63;98952.84;4228808;81;21546;-81
2021/07/11 23:51:41;;;;;;;11.57;8.33;;;;;;;17.04;94.60;98963.37;4228394;82;21362;-80
2021/07/11 23:57:45;;;;;;;12.85;9.18;;;;;;;17.06;94.21;98975.39;4226747;82;21140;-80
